KLM6B EHAM-EDDL
Flight info
| Callsign | KLM6B |
|---|---|
| Flight time | 0h 25m |
| Altitude | 23000 |
| Route | ARNEM T196 TEBRO P62 PISAP PISAP1A |
| Aircraft | A320/M-SDE3FGHIRWY/LB1 |
Departure
| Time | 2026-05-04 10:19 |
|---|---|
| Airport | Amsterdam Airport Schiphol (EHAM) |
Arrival
| Time | 2026-05-04 10:44 |
|---|---|
| Airport | Düsseldorf Airport (EDDL) |
| Time | Latitude | Longitude | Altitude | Speed | Heading |
|---|---|---|---|---|---|
| 2026-05-04 09:55 | 52.31094 | 4.74742 | -1 ft | 0 kts | 93° |
| 2026-05-04 10:08 | 52.31084 | 4.74579 | -1 ft | 4 kts | 42° |
| 2026-05-04 10:08 | 52.31072 | 4.74568 | -1 ft | 1 kts | 3° |
| 2026-05-04 10:08 | 52.31069 | 4.74567 | -1 ft | 0 kts | 3° |
| 2026-05-04 10:11 | 52.31080 | 4.74568 | -1 ft | 4 kts | 3° |
| 2026-05-04 10:11 | 52.31142 | 4.74574 | -1 ft | 12 kts | 3° |
| 2026-05-04 10:11 | 52.31239 | 4.74582 | -1 ft | 16 kts | 3° |
| 2026-05-04 10:11 | 52.31349 | 4.74583 | -1 ft | 12 kts | 351° |
| 2026-05-04 10:12 | 52.31396 | 4.74470 | -1 ft | 15 kts | 269° |
| 2026-05-04 10:12 | 52.31405 | 4.74310 | -1 ft | 15 kts | 308° |
| 2026-05-04 10:12 | 52.31517 | 4.74289 | -1 ft | 19 kts | 4° |
| 2026-05-04 10:12 | 52.31661 | 4.74305 | -1 ft | 23 kts | 4° |
| 2026-05-04 10:13 | 52.31833 | 4.74324 | -1 ft | 27 kts | 4° |
| 2026-05-04 10:13 | 52.31882 | 4.74330 | -1 ft | 2 kts | 4° |
| 2026-05-04 10:13 | 52.31897 | 4.74387 | -1 ft | 14 kts | 141° |
| 2026-05-04 10:13 | 52.31784 | 4.74353 | -1 ft | 21 kts | 179° |
| 2026-05-04 10:14 | 52.31613 | 4.74347 | -1 ft | 25 kts | 196° |
| 2026-05-04 10:14 | 52.31495 | 4.74305 | -1 ft | 2 kts | 171° |
| 2026-05-04 10:16 | 52.31445 | 4.75935 | -1 ft | 25 kts | 92° |
| 2026-05-04 10:16 | 52.31451 | 4.76237 | -1 ft | 28 kts | 84° |
| 2026-05-04 10:16 | 52.31466 | 4.76516 | -1 ft | 18 kts | 89° |
| 2026-05-04 10:16 | 52.31473 | 4.76746 | -1 ft | 22 kts | 85° |
| 2026-05-04 10:17 | 52.31483 | 4.77022 | -1 ft | 26 kts | 87° |
| 2026-05-04 10:17 | 52.31518 | 4.77188 | -1 ft | 15 kts | 34° |
| 2026-05-04 10:19 | 52.31302 | 4.77938 | -1 ft | 68 kts | 183° |
| 2026-05-04 10:19 | 52.30488 | 4.77866 | 3 ft | 160 kts | 182° |
| 2026-05-04 10:19 | 52.29300 | 4.77780 | 763 ft | 181 kts | 183° |
| 2026-05-04 10:19 | 52.28034 | 4.77671 | 1974 ft | 189 kts | 184° |
| 2026-05-04 10:20 | 52.26646 | 4.77826 | 2953 ft | 213 kts | 160° |
| 2026-05-04 10:20 | 52.25489 | 4.79431 | 3862 ft | 230 kts | 120° |
| 2026-05-04 10:20 | 52.25072 | 4.82131 | 4893 ft | 238 kts | 95° |
| 2026-05-04 10:20 | 52.25060 | 4.84713 | 5900 ft | 242 kts | 90° |
| 2026-05-04 10:21 | 52.25134 | 4.87542 | 6662 ft | 262 kts | 89° |
| 2026-05-04 10:21 | 52.25201 | 4.90673 | 7378 ft | 280 kts | 90° |
| 2026-05-04 10:21 | 52.25225 | 4.93849 | 8318 ft | 287 kts | 92° |
| 2026-05-04 10:21 | 52.25204 | 4.97183 | 9337 ft | 293 kts | 93° |
| 2026-05-04 10:22 | 52.25061 | 5.04080 | 10704 ft | 324 kts | 95° |
| 2026-05-04 10:22 | 52.24951 | 5.07867 | 11221 ft | 341 kts | 95° |
| 2026-05-04 10:22 | 52.24831 | 5.11778 | 12005 ft | 348 kts | 95° |
| 2026-05-04 10:23 | 52.24711 | 5.15747 | 12845 ft | 354 kts | 95° |
| 2026-05-04 10:23 | 52.24588 | 5.19792 | 13688 ft | 359 kts | 95° |
| 2026-05-04 10:25 | 52.23208 | 5.49425 | 18852 ft | 390 kts | 98° |
| 2026-05-04 10:25 | 52.22728 | 5.53718 | 19518 ft | 391 kts | 108° |
| 2026-05-04 10:25 | 52.21819 | 5.57904 | 20233 ft | 393 kts | 115° |
| 2026-05-04 10:25 | 52.20798 | 5.62111 | 20953 ft | 396 kts | 115° |
| 2026-05-04 10:26 | 52.19776 | 5.66311 | 21626 ft | 400 kts | 116° |
| 2026-05-04 10:26 | 52.18747 | 5.70547 | 22303 ft | 404 kts | 116° |
| 2026-05-04 10:26 | 52.17709 | 5.74831 | 22838 ft | 408 kts | 116° |
| 2026-05-04 10:26 | 52.16664 | 5.79134 | 22975 ft | 410 kts | 116° |
| 2026-05-04 10:27 | 52.15606 | 5.83471 | 23002 ft | 414 kts | 116° |
| 2026-05-04 10:27 | 52.14542 | 5.87823 | 23002 ft | 414 kts | 116° |
| 2026-05-04 10:27 | 52.13472 | 5.92179 | 23003 ft | 414 kts | 116° |
| 2026-05-04 10:27 | 52.12395 | 5.96528 | 23003 ft | 414 kts | 116° |
| 2026-05-04 10:28 | 52.11316 | 6.00876 | 23003 ft | 414 kts | 116° |
| 2026-05-04 10:28 | 52.10240 | 6.05220 | 23004 ft | 414 kts | 117° |
| 2026-05-04 10:28 | 52.08989 | 6.09314 | 22922 ft | 396 kts | 126° |
| 2026-05-04 10:28 | 52.07537 | 6.13055 | 22527 ft | 388 kts | 127° |
| 2026-05-04 10:29 | 52.06096 | 6.16724 | 22037 ft | 384 kts | 127° |
| 2026-05-04 10:29 | 52.04670 | 6.20348 | 21533 ft | 381 kts | 127° |
| 2026-05-04 10:29 | 52.03779 | 6.22607 | 21205 ft | 379 kts | 127° |
| 2026-05-04 10:29 | 52.02362 | 6.26196 | 20689 ft | 376 kts | 127° |
| 2026-05-04 10:30 | 52.00953 | 6.29761 | 20171 ft | 374 kts | 127° |
| 2026-05-04 10:30 | 51.99555 | 6.33296 | 19656 ft | 371 kts | 126° |
| 2026-05-04 10:30 | 51.98163 | 6.36808 | 19130 ft | 369 kts | 126° |
| 2026-05-04 10:30 | 51.96780 | 6.40291 | 18627 ft | 366 kts | 126° |
| 2026-05-04 10:31 | 51.95325 | 6.43639 | 18112 ft | 360 kts | 135° |
| 2026-05-04 10:31 | 51.93422 | 6.46181 | 17585 ft | 350 kts | 153° |
| 2026-05-04 10:32 | 51.80266 | 6.54125 | 14584 ft | 328 kts | 163° |
| 2026-05-04 10:33 | 51.78155 | 6.55359 | 13812 ft | 321 kts | 163° |
| 2026-05-04 10:33 | 51.76047 | 6.56586 | 13186 ft | 321 kts | 163° |
| 2026-05-04 10:33 | 51.73953 | 6.57802 | 12708 ft | 318 kts | 163° |
| 2026-05-04 10:33 | 51.71874 | 6.59011 | 12285 ft | 316 kts | 163° |
| 2026-05-04 10:34 | 51.69815 | 6.60207 | 11820 ft | 314 kts | 163° |
| 2026-05-04 10:34 | 51.67768 | 6.61394 | 11329 ft | 312 kts | 163° |
| 2026-05-04 10:34 | 51.65745 | 6.62570 | 11046 ft | 304 kts | 163° |
| 2026-05-04 10:34 | 51.63801 | 6.63703 | 10922 ft | 291 kts | 163° |
| 2026-05-04 10:35 | 51.61929 | 6.64792 | 10725 ft | 282 kts | 163° |
| 2026-05-04 10:35 | 51.60093 | 6.65853 | 10421 ft | 279 kts | 163° |
| 2026-05-04 10:35 | 51.58268 | 6.66902 | 10082 ft | 277 kts | 163° |
| 2026-05-04 10:35 | 51.56457 | 6.67943 | 9722 ft | 276 kts | 163° |
| 2026-05-04 10:36 | 51.54671 | 6.69001 | 9132 ft | 273 kts | 159° |
| 2026-05-04 10:36 | 51.53054 | 6.70604 | 8433 ft | 275 kts | 142° |
| 2026-05-04 10:36 | 51.51771 | 6.72884 | 7768 ft | 277 kts | 127° |
| 2026-05-04 10:36 | 51.50690 | 6.75431 | 7106 ft | 275 kts | 127° |
| 2026-05-04 10:37 | 51.49619 | 6.77925 | 6485 ft | 273 kts | 127° |
| 2026-05-04 10:37 | 51.48544 | 6.80415 | 5831 ft | 271 kts | 128° |
| 2026-05-04 10:37 | 51.47473 | 6.82886 | 5187 ft | 268 kts | 128° |
| 2026-05-04 10:37 | 51.46411 | 6.85339 | 4588 ft | 265 kts | 127° |
| 2026-05-04 10:39 | 51.40935 | 6.97634 | 3714 ft | 182 kts | 150° |
| 2026-05-04 10:39 | 51.39859 | 6.98207 | 3353 ft | 174 kts | 184° |
| 2026-05-04 10:39 | 51.38738 | 6.97659 | 3150 ft | 170 kts | 217° |
| 2026-05-04 10:40 | 51.37946 | 6.96258 | 2949 ft | 171 kts | 233° |
| 2026-05-04 10:40 | 51.37249 | 6.94778 | 2746 ft | 159 kts | 232° |
| 2026-05-04 10:40 | 51.36600 | 6.93402 | 2527 ft | 152 kts | 232° |
| 2026-05-04 10:40 | 51.35977 | 6.92087 | 2314 ft | 144 kts | 231° |
| 2026-05-04 10:41 | 51.35390 | 6.90844 | 2117 ft | 135 kts | 230° |
| 2026-05-04 10:41 | 51.34838 | 6.89680 | 1949 ft | 129 kts | 232° |
| 2026-05-04 10:41 | 51.34308 | 6.88560 | 1780 ft | 124 kts | 231° |
| 2026-05-04 10:41 | 51.33791 | 6.87470 | 1641 ft | 123 kts | 231° |
| 2026-05-04 10:42 | 51.33276 | 6.86385 | 1466 ft | 122 kts | 232° |
| 2026-05-04 10:42 | 51.32763 | 6.85303 | 1290 ft | 122 kts | 232° |
| 2026-05-04 10:42 | 51.32252 | 6.84226 | 1127 ft | 121 kts | 231° |
| 2026-05-04 10:42 | 51.31744 | 6.83156 | 960 ft | 121 kts | 232° |
| 2026-05-04 10:43 | 51.31235 | 6.82085 | 799 ft | 122 kts | 232° |
| 2026-05-04 10:44 | 51.28543 | 6.76422 | 125 ft | 37 kts | 231° |
| 2026-05-04 10:45 | 51.28410 | 6.76162 | 128 ft | 25 kts | 227° |
| 2026-05-04 10:45 | 51.28282 | 6.76042 | 128 ft | 17 kts | 180° |
| 2026-05-04 10:45 | 51.28238 | 6.76056 | 128 ft | 0 kts | 164° |
| 2026-05-04 10:56 | 51.27909 | 6.76251 | 124 ft | 0 kts | 61° |